Paranam, Suriname
Current Conditions -  °F | °C
As of 6:00 AM on Monday 24 Nov 2014 (Local Time) from SMJP Reporting Station
Moderate Fog Moderate Fog  
Wind Chill: 73°   Ceiling: 200
Heat Index: 73°   Visibility: 0.5mi
Dew Point: 73°   Wind: 2mph
Humidity: 100%   Direction: 100°E
Pressure: 29.85"   Gusts: NA
Location:  5.61°N, 55.1°W
Report Text: SMJP 240900Z 10002KT 0800 FG BKN002 23/23 Q1011 TEMPO1200 BR
Loading
Personal Weather Stations






























Interactive Weather Map New forecast layout! Learn more

10-Day Weather Forecast

Advertisements
Track Severe Weather on mobile